New Milford, Illinois
Current Conditions -  °F | °C
As of 1:54 AM on Saturday 20 Dec 2014 (Local Time) from KRFD Reporting Station
Overcast Overcast  
Wind Chill: 25°   Ceiling: 3700
Heat Index: 25°   Visibility: 7mi
Dew Point: 22°   Wind: 3mph
Humidity: 88%   Direction: 170°S
Pressure: 30.29"   Gusts: NA
Location:  42.1929°N, 89.0567°W
Report Text: KRFD 200754Z 17003KT 7SM OVC037 M04/M06 A3029 RMK AO2 SLP268 T10391056
Loading
Personal Weather Stations






























Interactive Weather Map New forecast layout! Learn more

10-Day Weather Forecast

Advertisements
Track Severe Weather on mobile